TRO weather

Taree Airport
Taree, New South Wales, Australia

Public forecast

Using degrees Celsius for public forecast. Weather courtesy of forecast.io.

METAR (pilot weather report)

Retrieved 2019/02/19 17:00 UTC (42 minutes ago):

YTRE 191700Z AUTO 28004KT //// // BKN019 OVC024 21/20 Q1008

TAF (pilot weather forecast)

Retrieved 2019/02/19 14:03 UTC (4 hours ago):

TAF YTRE 191244Z 1914/2002 20005KT 9999 -SHRA SCT010 BKN018 FM192000 07005KT 9999 BKN025